Arlington, Texas
Current Conditions -  °F | °C
As of 7:55 PM on Saturday 22 Nov 2014 (Local Time) from KGPM Reporting Station
Scattered Clouds Scattered Clouds  
Wind Chill: 58°   Ceiling: Unl
Heat Index: 58°   Visibility: 10mi
Dew Point: 58°   Wind: 6mph
Humidity: 100%   Direction: 220°SW
Pressure: 29.85"   Gusts: NA
Location:  32.74°N, 97.11°W
Report Text: KGPM 230155Z AUTO 22005KT 10SM SCT007 SCT012 15/15 A2985 RMK AO2 P0008 T01450145
Loading
Personal Weather Stations






























Interactive Weather Map New forecast layout! Learn more

10-Day Weather Forecast

Advertisements
Track Severe Weather on mobile